createdAt,value
2022-12-08T00:02:33.505Z,14.53
2022-12-08T00:05:39.373Z,13.77
2022-12-08T00:08:44.960Z,14.07
2022-12-08T00:11:32.028Z,14.40
2022-12-08T00:14:19.300Z,15.57
2022-12-08T00:17:07.895Z,15.73
2022-12-08T00:19:54.907Z,15.23
2022-12-08T00:22:41.900Z,15.67
2022-12-08T00:25:28.836Z,15.40
2022-12-08T00:28:16.237Z,15.63
2022-12-08T00:31:11.111Z,15.87
2022-12-08T00:33:58.682Z,15.23
2022-12-08T00:36:46.063Z,15.13
2022-12-08T00:39:33.275Z,14.90
2022-12-08T00:42:20.298Z,15.37
2022-12-08T00:45:07.587Z,15.67
2022-12-08T00:47:54.545Z,15.07
2022-12-08T00:50:41.610Z,17.00
2022-12-08T00:53:28.671Z,16.80
2022-12-08T00:56:15.681Z,18.20
2022-12-08T00:59:05.215Z,17.37
2022-12-08T01:01:52.268Z,18.00
2022-12-08T01:04:39.428Z,17.10
2022-12-08T01:07:26.361Z,17.13
2022-12-08T01:10:13.350Z,17.03
2022-12-08T01:13:00.342Z,16.47
2022-12-08T01:15:47.402Z,16.73
2022-12-08T01:18:34.910Z,16.80
2022-12-08T01:21:22.113Z,16.23
2022-12-08T01:24:14.402Z,16.87
2022-12-08T01:27:01.418Z,16.47
2022-12-08T01:29:48.444Z,17.83
2022-12-08T01:32:35.424Z,17.13
2022-12-08T01:35:22.457Z,17.67
2022-12-08T01:38:09.533Z,16.97
2022-12-08T01:40:56.518Z,17.50
2022-12-08T01:43:59.063Z,17.47
2022-12-08T01:46:49.815Z,17.67
2022-12-08T01:49:36.991Z,18.23
2022-12-08T01:52:29.323Z,18.37
2022-12-08T01:55:33.578Z,18.93
2022-12-08T01:58:27.100Z,18.40
2022-12-08T02:01:14.734Z,19.90
2022-12-08T02:04:05.012Z,19.60
2022-12-08T02:06:53.070Z,20.23
2022-12-08T02:09:40.929Z,19.13
2022-12-08T02:12:27.947Z,20.07
2022-12-08T02:15:15.646Z,19.47
2022-12-08T02:18:57.664Z,18.87
2022-12-08T02:21:54.297Z,19.63
2022-12-08T02:24:41.263Z,19.70
2022-12-08T02:28:07.520Z,19.23
2022-12-08T02:31:23.685Z,18.83
2022-12-08T02:34:15.921Z,19.87
2022-12-08T02:37:05.635Z,19.07
2022-12-08T02:40:20.693Z,19.87
2022-12-08T02:43:14.546Z,20.97
2022-12-08T02:46:05.800Z,21.23
2022-12-08T02:48:53.399Z,21.57
2022-12-08T02:51:40.337Z,21.70
2022-12-08T02:54:27.401Z,22.60
2022-12-08T02:57:33.151Z,23.00
2022-12-08T03:00:27.353Z,21.83
2022-12-08T03:03:35.075Z,22.97
2022-12-08T03:06:45.813Z,21.87
2022-12-08T03:09:41.844Z,21.57
2022-12-08T03:12:38.185Z,20.77
2022-12-08T03:15:25.189Z,20.63
2022-12-08T03:18:15.665Z,22.00
2022-12-08T03:21:03.918Z,21.50
2022-12-08T03:23:55.170Z,22.63
2022-12-08T03:26:54.657Z,23.43
2022-12-08T03:29:41.701Z,22.57
2022-12-08T03:32:40.435Z,22.43
2022-12-08T03:35:31.114Z,21.53
2022-12-08T03:38:18.137Z,21.67
2022-12-08T03:41:20.355Z,21.67
2022-12-08T03:44:07.516Z,20.97
2022-12-08T03:46:55.101Z,19.93
2022-12-08T03:49:42.715Z,21.27
2022-12-08T03:52:30.190Z,21.20
2022-12-08T03:55:17.513Z,19.87
2022-12-08T03:58:07.802Z,19.00
2022-12-08T04:00:55.082Z,19.77
2022-12-08T04:03:42.136Z,20.03
2022-12-08T04:06:29.098Z,20.40
2022-12-08T04:09:16.339Z,20.70
2022-12-08T04:12:03.378Z,21.40
2022-12-08T04:14:50.372Z,20.30
2022-12-08T04:17:37.340Z,20.17
2022-12-08T04:20:24.299Z,21.23
2022-12-08T04:23:12.242Z,21.20
2022-12-08T04:25:59.570Z,19.07
2022-12-08T04:28:46.665Z,19.43
2022-12-08T04:31:33.730Z,19.37
2022-12-08T04:34:20.757Z,19.67
2022-12-08T04:37:07.717Z,19.33
2022-12-08T04:39:54.930Z,20.50
2022-12-08T04:42:41.965Z,20.10
2022-12-08T04:45:29.024Z,20.33
2022-12-08T04:48:16.044Z,19.30
2022-12-08T04:51:03.089Z,19.07
2022-12-08T04:53:50.028Z,19.10
2022-12-08T04:56:37.164Z,18.93
2022-12-08T04:59:24.154Z,18.60
2022-12-08T05:02:11.235Z,19.70
2022-12-08T05:04:58.435Z,18.27
2022-12-08T05:07:45.479Z,18.87
2022-12-08T05:10:32.868Z,18.90
2022-12-08T05:13:19.849Z,17.23
2022-12-08T05:16:10.392Z,18.90
2022-12-08T05:18:57.402Z,18.93
2022-12-08T05:21:45.655Z,20.37
2022-12-08T05:24:32.735Z,18.60
2022-12-08T05:27:19.652Z,18.73
2022-12-08T05:30:07.489Z,18.83
2022-12-08T05:32:54.591Z,18.97
2022-12-08T05:35:41.628Z,18.93
2022-12-08T05:38:29.488Z,18.80
2022-12-08T05:41:21.230Z,18.80
2022-12-08T05:44:08.635Z,19.13
2022-12-08T05:46:55.610Z,18.60
2022-12-08T05:49:42.601Z,17.70
2022-12-08T05:52:29.693Z,17.87
2022-12-08T05:55:16.766Z,17.07
2022-12-08T05:58:07.826Z,17.00
2022-12-08T06:00:55.180Z,16.83
2022-12-08T06:03:42.800Z,17.27
2022-12-08T06:06:36.184Z,16.87
2022-12-08T06:09:23.184Z,17.23
2022-12-08T06:12:11.816Z,16.17
2022-12-08T06:14:58.813Z,16.00
2022-12-08T06:17:45.754Z,16.40
2022-12-08T06:20:34.213Z,17.07
2022-12-08T06:23:21.362Z,17.33
2022-12-08T06:26:14.448Z,15.53
2022-12-08T06:29:01.579Z,17.13
2022-12-08T06:31:48.595Z,16.43
2022-12-08T06:34:35.664Z,18.20
2022-12-08T06:37:22.708Z,18.30
2022-12-08T06:40:10.090Z,18.23
2022-12-08T06:42:57.108Z,18.73
2022-12-08T06:45:44.120Z,18.47
2022-12-08T06:48:31.104Z,18.03
2022-12-08T06:51:20.328Z,19.80
2022-12-08T06:54:07.322Z,18.47
2022-12-08T06:56:54.329Z,19.70
2022-12-08T06:59:41.392Z,20.03
2022-12-08T07:02:28.527Z,20.13
2022-12-08T07:05:15.638Z,20.50
2022-12-08T07:08:02.884Z,21.57
2022-12-08T07:10:49.937Z,21.17
2022-12-08T07:13:36.979Z,20.50
2022-12-08T07:16:24.596Z,21.23
2022-12-08T07:19:11.634Z,23.10
2022-12-08T07:21:58.593Z,21.53
2022-12-08T07:24:45.557Z,22.30
2022-12-08T07:27:32.638Z,22.17
2022-12-08T07:30:19.753Z,22.07
2022-12-08T07:33:06.883Z,22.30
2022-12-08T07:35:59.049Z,21.67
2022-12-08T07:38:46.141Z,22.53
2022-12-08T07:41:33.673Z,21.60
2022-12-08T07:44:20.804Z,21.00
2022-12-08T07:47:07.777Z,21.03
2022-12-08T07:49:54.790Z,21.93
2022-12-08T07:52:41.745Z,21.57
2022-12-08T07:55:28.873Z,20.70
2022-12-08T07:58:15.790Z,21.57
2022-12-08T08:01:02.938Z,20.97
2022-12-08T08:03:50.253Z,23.07
2022-12-08T08:06:38.549Z,21.27
2022-12-08T08:09:25.557Z,20.93
2022-12-08T08:15:21.519Z,22.17
2022-12-08T08:18:09.457Z,21.00
2022-12-08T08:20:58.140Z,20.17
2022-12-08T08:23:47.105Z,20.57
2022-12-08T08:26:35.584Z,22.63
2022-12-08T08:29:23.558Z,20.80
2022-12-08T08:32:10.888Z,21.83
2022-12-08T08:34:57.816Z,19.87
2022-12-08T08:37:48.802Z,19.93
2022-12-08T08:40:36.268Z,18.93
2022-12-08T08:43:34.277Z,18.00
2022-12-08T08:46:24.800Z,18.20
2022-12-08T08:49:12.504Z,17.13
2022-12-08T08:51:59.657Z,16.67
2022-12-08T08:54:46.754Z,18.07
2022-12-08T08:57:33.840Z,17.03
2022-12-08T09:00:21.117Z,16.33
2022-12-08T09:03:08.088Z,16.53
2022-12-08T09:05:56.271Z,15.80
2022-12-08T09:08:44.956Z,15.60
2022-12-08T09:11:33.109Z,15.90
2022-12-08T09:14:20.196Z,16.17
2022-12-08T09:17:08.987Z,16.13
2022-12-08T09:19:55.947Z,15.73
2022-12-08T09:22:42.986Z,17.37
2022-12-08T09:25:30.030Z,16.60
2022-12-08T09:28:17.063Z,15.43
2022-12-08T09:31:05.226Z,16.57
2022-12-08T09:33:52.331Z,16.27
2022-12-08T09:36:39.863Z,14.77
2022-12-08T09:39:26.934Z,15.30
2022-12-08T09:42:17.569Z,15.80
2022-12-08T09:45:12.004Z,14.57
2022-12-08T09:48:12.357Z,15.43
2022-12-08T09:51:07.289Z,14.43
2022-12-08T09:54:28.384Z,15.37
2022-12-08T09:57:22.153Z,14.30
2022-12-08T10:00:16.447Z,13.40
2022-12-08T10:03:16.263Z,12.33
2022-12-08T10:06:18.647Z,12.77
2022-12-08T10:09:29.109Z,11.23
2022-12-08T10:12:51.122Z,11.17
2022-12-08T10:15:53.471Z,11.20
2022-12-08T10:18:42.522Z,11.13
2022-12-08T10:21:32.661Z,10.10
2022-12-08T10:24:35.214Z,10.73
2022-12-08T10:27:23.289Z,9.73
2022-12-08T10:30:19.960Z,8.43
2022-12-08T10:33:21.354Z,9.43
2022-12-08T10:36:14.373Z,9.10
2022-12-08T10:39:04.307Z,9.10
2022-12-08T10:41:52.859Z,8.60
2022-12-08T10:45:19.664Z,7.80
2022-12-08T10:48:14.684Z,7.63
2022-12-08T10:51:05.285Z,8.17
2022-12-08T10:53:52.552Z,7.63
2022-12-08T10:56:39.626Z,7.37
2022-12-08T10:59:26.765Z,7.40
2022-12-08T11:02:20.704Z,7.47
2022-12-08T11:05:17.254Z,7.43
2022-12-08T11:08:06.863Z,6.70
2022-12-08T11:10:54.124Z,6.60
2022-12-08T11:13:42.644Z,6.40
2022-12-08T11:16:29.696Z,6.73
2022-12-08T11:19:19.632Z,7.27
2022-12-08T11:22:27.549Z,7.83
2022-12-08T11:25:26.197Z,7.63
2022-12-08T11:28:13.286Z,8.47
2022-12-08T11:31:07.142Z,8.40
2022-12-08T11:33:54.262Z,8.10
2022-12-08T11:36:41.641Z,8.17
2022-12-08T11:39:34.810Z,8.20
2022-12-08T11:42:29.854Z,8.10
2022-12-08T11:45:24.702Z,9.20
2022-12-08T11:48:32.518Z,8.60
2022-12-08T11:51:28.926Z,9.33
2022-12-08T11:54:28.937Z,9.37
2022-12-08T11:57:16.698Z,9.03
2022-12-08T12:00:06.237Z,8.93
2022-12-08T12:03:02.073Z,9.43
2022-12-08T12:06:18.353Z,8.83
2022-12-08T12:09:17.135Z,9.30
2022-12-08T12:12:19.295Z,9.60
2022-12-08T12:15:12.991Z,9.70
2022-12-08T12:18:24.934Z,9.93
2022-12-08T12:21:21.741Z,10.30
2022-12-08T12:24:30.396Z,9.97
2022-12-08T12:27:37.464Z,10.33
2022-12-08T12:30:32.428Z,10.40
2022-12-08T12:33:20.925Z,10.07
2022-12-08T12:36:10.731Z,9.43
2022-12-08T12:39:01.521Z,9.40
2022-12-08T12:41:58.200Z,9.07
2022-12-08T12:44:45.384Z,9.20
2022-12-08T12:47:56.302Z,9.53
2022-12-08T12:50:51.701Z,9.87
2022-12-08T12:53:38.650Z,9.80
2022-12-08T12:56:49.077Z,10.23
2022-12-08T12:59:42.694Z,9.30
2022-12-08T13:02:39.719Z,9.70
2022-12-08T13:05:32.058Z,9.70
2022-12-08T13:08:29.437Z,9.23
2022-12-08T13:11:17.937Z,9.07
2022-12-08T13:14:06.294Z,8.63
2022-12-08T13:16:57.071Z,9.87
2022-12-08T13:19:51.754Z,8.67
2022-12-08T13:22:55.890Z,9.30
2022-12-08T13:25:42.866Z,8.60
2022-12-08T13:28:31.313Z,9.30
2022-12-08T13:31:49.787Z,8.53
2022-12-08T13:34:41.750Z,8.33
2022-12-08T13:37:33.256Z,9.07
2022-12-08T13:40:28.401Z,9.37
2022-12-08T13:43:45.164Z,10.00
2022-12-08T13:47:09.843Z,8.47
2022-12-08T13:57:36.036Z,8.07
2022-12-08T14:00:24.218Z,8.73
2022-12-08T14:03:13.336Z,8.83
2022-12-08T14:06:12.038Z,8.20
2022-12-08T14:09:08.719Z,8.63
2022-12-08T14:12:18.613Z,8.47
2022-12-08T14:15:07.474Z,8.50
2022-12-08T14:17:56.830Z,8.30
2022-12-08T14:21:12.621Z,8.00
2022-12-08T14:23:50.849Z,8.80
2022-12-08T14:26:38.740Z,8.63
2022-12-08T14:29:51.136Z,8.13
2022-12-08T14:32:43.483Z,8.23
2022-12-08T14:35:36.892Z,9.03
2022-12-08T14:38:26.254Z,8.33
2022-12-08T14:41:13.306Z,8.87
2022-12-08T14:44:01.844Z,8.23
2022-12-08T14:47:09.869Z,8.27
2022-12-08T14:49:57.781Z,7.70
2022-12-08T14:52:45.444Z,7.70
2022-12-08T14:55:37.393Z,9.17
2022-12-08T14:58:30.548Z,7.93
2022-12-08T15:01:24.956Z,7.33
2022-12-08T15:04:24.511Z,7.73
2022-12-08T15:07:25.309Z,7.67
2022-12-08T15:10:17.173Z,7.47
2022-12-08T15:13:12.158Z,7.97
2022-12-08T15:16:00.554Z,6.93
2022-12-08T15:19:04.097Z,7.37
2022-12-08T15:21:52.846Z,7.77
2022-12-08T15:24:41.291Z,8.40
2022-12-08T15:27:30.016Z,8.40
2022-12-08T15:30:20.917Z,8.60
2022-12-08T15:33:10.000Z,7.87
2022-12-08T15:35:59.958Z,7.87
2022-12-08T15:38:48.651Z,8.10
2022-12-08T15:41:38.724Z,8.40
2022-12-08T15:44:28.109Z,8.33
2022-12-08T15:47:27.218Z,8.60
2022-12-08T15:50:18.397Z,8.83
2022-12-08T15:53:07.100Z,8.10
2022-12-08T15:59:11.800Z,8.40
2022-12-08T16:02:01.194Z,7.70
2022-12-08T16:08:04.546Z,7.53
2022-12-08T16:11:56.445Z,7.80
2022-12-08T16:15:39.836Z,7.87
2022-12-08T16:17:37.166Z,7.47
2022-12-08T16:20:43.921Z,8.13
2022-12-08T16:23:44.566Z,7.27
2022-12-08T16:29:40.233Z,7.33
2022-12-08T16:32:28.297Z,7.30
2022-12-08T16:35:15.439Z,7.93
2022-12-08T16:38:02.497Z,8.17
2022-12-08T16:41:10.593Z,7.23
2022-12-08T16:44:05.970Z,7.53
2022-12-08T16:46:53.534Z,7.07
2022-12-08T16:49:42.473Z,7.70
2022-12-08T16:52:29.621Z,7.67
2022-12-08T16:55:20.390Z,7.53
2022-12-08T16:58:07.445Z,7.37
2022-12-08T17:00:55.867Z,8.07
2022-12-08T17:03:56.262Z,7.90
2022-12-08T17:06:53.409Z,8.43
2022-12-08T17:09:46.143Z,9.27
2022-12-08T17:12:39.550Z,8.97
2022-12-08T17:15:29.320Z,8.90
2022-12-08T17:18:17.193Z,7.10
2022-12-08T17:21:13.119Z,7.23
2022-12-08T17:24:04.718Z,8.00
2022-12-08T17:26:54.131Z,8.63
2022-12-08T17:29:41.708Z,8.77
2022-12-08T17:32:29.786Z,8.83
2022-12-08T17:35:19.991Z,8.47
2022-12-08T17:38:07.116Z,9.20
2022-12-08T17:40:58.584Z,7.83
2022-12-08T17:43:49.598Z,8.27
2022-12-08T17:46:42.052Z,10.57
2022-12-08T17:49:33.330Z,8.93
2022-12-08T17:52:21.072Z,8.23
2022-12-08T17:55:10.792Z,9.23
2022-12-08T17:57:58.071Z,9.37
2022-12-08T18:00:45.150Z,9.23
2022-12-08T18:03:32.502Z,9.27
2022-12-08T18:06:21.421Z,9.87
2022-12-08T18:09:09.672Z,10.23
2022-12-08T18:11:56.963Z,11.57
2022-12-08T18:14:47.021Z,12.10
2022-12-08T18:17:34.206Z,12.23
2022-12-08T18:20:21.400Z,11.33
2022-12-08T18:23:08.533Z,12.03
2022-12-08T18:25:55.658Z,14.20
2022-12-08T18:28:44.176Z,13.97
2022-12-08T18:31:34.661Z,15.07
2022-12-08T18:34:22.555Z,13.37
2022-12-08T18:37:11.036Z,12.53
2022-12-08T18:39:59.753Z,13.47
2022-12-08T18:42:48.255Z,12.27
2022-12-08T18:45:40.264Z,10.60
2022-12-08T18:48:28.119Z,13.30
2022-12-08T18:51:19.257Z,13.53
2022-12-08T18:54:08.193Z,15.20
2022-12-08T18:56:58.524Z,14.23
2022-12-08T18:59:47.028Z,14.93
2022-12-08T19:02:36.547Z,14.07
2022-12-08T19:05:26.113Z,15.93
2022-12-08T19:08:31.495Z,15.03
2022-12-08T19:11:27.228Z,14.37
2022-12-08T19:14:15.629Z,13.37
2022-12-08T19:17:02.785Z,17.17
2022-12-08T19:19:52.228Z,17.13
2022-12-08T19:22:42.150Z,15.53
2022-12-08T19:25:32.632Z,15.80
2022-12-08T19:28:24.214Z,15.83
2022-12-08T19:31:15.229Z,15.73
2022-12-08T19:34:06.818Z,15.00
2022-12-08T19:36:56.236Z,14.67
2022-12-08T19:40:03.685Z,16.60
2022-12-08T19:43:09.733Z,14.60
2022-12-08T19:45:57.400Z,16.53
2022-12-08T19:48:45.200Z,16.33
2022-12-08T19:51:32.301Z,16.57
2022-12-08T19:54:20.484Z,15.37
2022-12-08T19:57:09.762Z,16.77
2022-12-08T19:59:58.537Z,16.87
2022-12-08T20:02:47.536Z,16.50
2022-12-08T20:05:39.238Z,18.70
2022-12-08T20:08:27.526Z,19.00
2022-12-08T20:11:19.395Z,17.90
2022-12-08T20:14:10.910Z,18.13
2022-12-08T20:16:59.134Z,19.30
2022-12-08T20:19:47.844Z,19.73
2022-12-08T20:22:36.564Z,20.70
2022-12-08T20:25:25.569Z,18.83
2022-12-08T20:28:18.140Z,18.20
2022-12-08T20:31:07.435Z,19.40
2022-12-08T20:33:55.363Z,19.57
2022-12-08T20:36:43.539Z,21.57
2022-12-08T20:39:32.477Z,19.63
2022-12-08T20:42:20.538Z,19.67
2022-12-08T20:45:09.684Z,20.67
2022-12-08T20:47:57.164Z,21.53
2022-12-08T20:50:44.477Z,22.87
2022-12-08T20:53:31.503Z,22.13
2022-12-08T20:56:22.040Z,24.47
2022-12-08T20:59:15.917Z,24.07
2022-12-08T21:02:03.237Z,23.00
2022-12-08T21:04:50.976Z,23.10
2022-12-08T21:07:38.634Z,24.07
2022-12-08T21:10:26.496Z,23.57
2022-12-08T21:13:14.245Z,25.27
2022-12-08T21:16:01.456Z,26.33
2022-12-08T21:18:49.208Z,24.83
2022-12-08T21:21:36.587Z,22.90
2022-12-08T21:24:28.991Z,23.83
2022-12-08T21:27:20.765Z,26.40
2022-12-08T21:30:09.189Z,27.80
2022-12-08T21:32:57.378Z,24.50
2022-12-08T21:35:45.670Z,27.27
2022-12-08T21:38:33.600Z,25.90
2022-12-08T21:41:41.660Z,24.80
2022-12-08T21:44:29.344Z,26.23
2022-12-08T21:47:16.478Z,26.67
2022-12-08T21:50:04.205Z,25.47
2022-12-08T21:52:51.943Z,24.50
2022-12-08T21:55:39.845Z,26.47
2022-12-08T21:58:26.845Z,26.47
2022-12-08T22:01:14.350Z,26.17
2022-12-08T22:04:02.089Z,25.37
2022-12-08T22:06:49.396Z,28.53
2022-12-08T22:09:36.503Z,28.03
2022-12-08T22:12:24.240Z,29.77
2022-12-08T22:15:11.593Z,31.10
2022-12-08T22:17:58.813Z,33.53
2022-12-08T22:20:45.848Z,31.97
2022-12-08T22:23:33.391Z,30.20
2022-12-08T22:26:20.394Z,29.73
2022-12-08T22:29:08.553Z,30.57
2022-12-08T22:31:55.587Z,29.70
2022-12-08T22:34:42.854Z,29.90
2022-12-08T22:37:29.842Z,28.37
2022-12-08T22:40:17.029Z,28.87
2022-12-08T22:43:04.025Z,28.80
2022-12-08T22:45:51.216Z,26.93
2022-12-08T22:48:38.344Z,25.90
2022-12-08T22:51:25.611Z,27.33
2022-12-08T22:54:12.858Z,26.80
2022-12-08T22:56:59.831Z,26.47
2022-12-08T22:59:46.795Z,26.03
2022-12-08T23:02:33.890Z,26.37
2022-12-08T23:05:20.950Z,27.20
2022-12-08T23:08:09.436Z,25.83
2022-12-08T23:10:56.541Z,25.50
2022-12-08T23:13:44.097Z,24.90
2022-12-08T23:16:31.412Z,23.70
2022-12-08T23:19:18.708Z,24.27
2022-12-08T23:22:05.881Z,24.00
2022-12-08T23:24:53.112Z,25.07
2022-12-08T23:27:40.533Z,24.93
2022-12-08T23:30:27.527Z,25.43
2022-12-08T23:33:14.544Z,26.93
2022-12-08T23:36:01.779Z,26.17
2022-12-08T23:38:49.041Z,26.20
2022-12-08T23:41:36.090Z,26.00
2022-12-08T23:44:23.379Z,26.17
2022-12-08T23:47:10.505Z,26.10
2022-12-08T23:49:57.733Z,26.67
2022-12-08T23:52:45.462Z,26.63
2022-12-08T23:55:32.580Z,24.83
2022-12-08T23:58:19.510Z,27.40
